Hovedside
METAR-TAF:

METAR-TAF

Lufthavner :

Genève internasjonale lufthavn

Genève, Sveits

breddegrad: 46-15N, lengdegrad: 006-08E, høyde over havet: 420 m

Gjeldene værobservasjon

Denne rapporten ble laget for 15 minutter siden, klokken 15:50 UTC
Vind 2 kt fra skiftende retning
Temperatur 6°C
Luftfuktighet 75%
Trykk 1012 hPa
Sikt 10 km eller mer
Brutte skyer i en høyde av 2000 ft

METAR: LSGG 201550Z VRB02KT 9999 BKN020 06/02 Q1012 NOSIG

Tid: 17:05 (16:05 UTC)

Varsel

Denne rapporten ble laget for 1 time og 40 minutter siden, klokken 14:25 UTC
Varsel gyldig fra 20. klokken 15 UTC til 21. klokken 21 UTC
Vind 4 kt fra Nord-nordøst
Sikt 10 km eller mer
Spredte skyer i en høyde av 2500 ft
Midlertidig
fra 20. klokken 23 UTC til 21. klokken 08 UTC
Brutte skyer i en høyde av 1200 ft

TAF: LSGG 201425Z 2015/2121 03004KT 9999 SCT025 TX06/2015Z TN03/2106Z TX07/2114Z TEMPO 2023/2108 BKN012

Værobservasjoner og værvarsel for over 4000 flyplasser (METAR- og TAF-rapporter).

Tilgjengelige stasjoner er representert av de røde og gule prikkene på kartet.

Hold musepekeren over prikken for å se navnet på stasjonen.

Klikk så for å se værobservasjoner og -varsler.

For å forandre kartet kan du klikke på den grønne knappen med svart kryss for å zoome inn, på den grønne knappen med strek for å zoome ut, eller på de grønne pilene for å se tilstøtende kart.


METAR-TAF: